createdAt,value
2023-11-04T00:01:01.673Z,98361.91
2023-11-04T00:03:39.248Z,98355.34
2023-11-04T00:06:08.039Z,98362.16
2023-11-04T00:08:36.889Z,98350.97
2023-11-04T00:11:04.657Z,98352.34
2023-11-04T00:13:32.222Z,98349.06
2023-11-04T00:15:59.946Z,98356.13
2023-11-04T00:18:28.364Z,98350.63
2023-11-04T00:20:57.359Z,98351.38
2023-11-04T00:23:24.912Z,98344.69
2023-11-04T00:25:52.445Z,98345.25
2023-11-04T00:28:20.461Z,98346.50
2023-11-04T00:30:49.825Z,98342.38
2023-11-04T00:33:17.712Z,98346.41
2023-11-04T00:35:45.275Z,98348.06
2023-11-04T00:38:14.231Z,98344.00
2023-11-04T00:40:42.869Z,98339.53
2023-11-04T00:43:10.475Z,98340.69
2023-11-04T00:45:38.036Z,98340.34
2023-11-04T00:48:05.888Z,98347.03
2023-11-04T00:50:33.449Z,98349.84
2023-11-04T00:53:00.953Z,98348.00
2023-11-04T00:55:30.021Z,98351.25
2023-11-04T00:57:57.663Z,98342.88
2023-11-04T01:00:27.361Z,98336.72
2023-11-04T01:02:55.518Z,98342.00
2023-11-04T01:05:24.681Z,98332.34
2023-11-04T01:07:53.117Z,98329.09
2023-11-04T01:10:20.839Z,98326.28
2023-11-04T01:12:49.882Z,98320.75
2023-11-04T01:15:17.650Z,98316.91
2023-11-04T01:17:45.285Z,98313.22
2023-11-04T01:20:13.393Z,98318.50
2023-11-04T01:22:41.360Z,98312.63
2023-11-04T01:25:09.828Z,98304.63
2023-11-04T01:27:37.421Z,98307.28
2023-11-04T01:30:07.925Z,98315.44
2023-11-04T01:32:35.738Z,98307.06
2023-11-04T01:35:03.644Z,98311.84
2023-11-04T01:37:31.233Z,98307.34
2023-11-04T01:39:59.479Z,98297.16
2023-11-04T01:42:27.190Z,98309.56
2023-11-04T01:44:54.691Z,98310.50
2023-11-04T01:47:23.613Z,98304.28
2023-11-04T01:49:51.172Z,98310.94
2023-11-04T01:52:19.944Z,98304.88
2023-11-04T01:54:47.842Z,98298.69
2023-11-04T01:57:16.427Z,98298.25
2023-11-04T01:59:44.345Z,98298.69
2023-11-04T02:02:13.891Z,98288.63
2023-11-04T02:04:43.686Z,98290.00
2023-11-04T02:07:11.249Z,98296.19
2023-11-04T02:09:38.912Z,98283.38
2023-11-04T02:12:06.868Z,98293.75
2023-11-04T02:14:34.360Z,98293.41
2023-11-04T02:17:01.883Z,98285.59
2023-11-04T02:19:29.455Z,98291.47
2023-11-04T02:22:00.193Z,98295.84
2023-11-04T02:24:27.779Z,98290.38
2023-11-04T02:26:55.369Z,98292.38
2023-11-04T02:29:22.835Z,98300.53
2023-11-04T02:31:50.333Z,98298.75
2023-11-04T02:34:18.102Z,98287.13
2023-11-04T02:36:45.725Z,98287.06
2023-11-04T02:39:14.695Z,98293.16
2023-11-04T02:41:42.206Z,98294.22
2023-11-04T02:44:09.704Z,98292.34
2023-11-04T02:46:37.215Z,98282.97
2023-11-04T02:49:04.741Z,98276.78
2023-11-04T02:51:33.689Z,98278.97
2023-11-04T02:54:01.437Z,98271.63
2023-11-04T02:56:30.389Z,98276.91
2023-11-04T02:58:57.935Z,98276.16
2023-11-04T03:01:25.462Z,98277.44
2023-11-04T03:03:53.294Z,98268.19
2023-11-04T03:06:24.668Z,98274.34
2023-11-04T03:08:52.529Z,98275.56
2023-11-04T03:11:20.551Z,98277.03
2023-11-04T03:13:49.381Z,98274.34
2023-11-04T03:16:21.188Z,98261.56
2023-11-04T03:18:49.468Z,98257.66
2023-11-04T03:21:17.393Z,98267.19
2023-11-04T03:23:46.537Z,98265.81
2023-11-04T03:26:14.495Z,98264.50
2023-11-04T03:28:42.353Z,98255.59
2023-11-04T03:31:11.193Z,98255.00
2023-11-04T03:33:39.781Z,98256.59
2023-11-04T03:36:09.817Z,98251.91
2023-11-04T03:38:39.847Z,98248.41
2023-11-04T03:41:07.754Z,98256.19
2023-11-04T03:43:35.330Z,98261.03
2023-11-04T03:46:04.441Z,98253.84
2023-11-04T03:48:34.568Z,98258.16
2023-11-04T03:51:02.522Z,98252.44
2023-11-04T03:53:30.110Z,98261.25
2023-11-04T03:55:57.616Z,98257.50
2023-11-04T03:58:25.404Z,98258.31
2023-11-04T04:00:53.112Z,98257.94
2023-11-04T04:03:20.799Z,98246.34
2023-11-04T04:05:49.966Z,98245.53
2023-11-04T04:08:17.705Z,98243.72
2023-11-04T04:10:45.655Z,98247.53
2023-11-04T04:13:13.313Z,98234.41
2023-11-04T04:15:40.864Z,98232.25
2023-11-04T04:18:08.459Z,98231.47
2023-11-04T04:20:35.963Z,98223.81
2023-11-04T04:23:04.866Z,98218.09
2023-11-04T04:25:32.381Z,98210.31
2023-11-04T04:27:59.870Z,98203.84
2023-11-04T04:30:27.434Z,98196.47
2023-11-04T04:32:55.061Z,98188.53
2023-11-04T04:35:23.657Z,98200.09
2023-11-04T04:37:51.138Z,98189.63
2023-11-04T04:40:19.973Z,98188.69
2023-11-04T04:42:47.560Z,98187.97
2023-11-04T04:45:15.605Z,98189.72
2023-11-04T04:47:43.211Z,98190.16
2023-11-04T04:50:11.500Z,98189.50
2023-11-04T04:52:39.225Z,98199.72
2023-11-04T04:55:07.260Z,98189.41
2023-11-04T04:57:36.691Z,98180.97
2023-11-04T05:00:06.075Z,98185.38
2023-11-04T05:02:34.904Z,98173.97
2023-11-04T05:05:02.522Z,98173.84
2023-11-04T05:07:30.073Z,98172.94
2023-11-04T05:09:58.719Z,98173.97
2023-11-04T05:12:26.466Z,98170.19
2023-11-04T05:14:55.697Z,98163.19
2023-11-04T05:17:23.198Z,98165.56
2023-11-04T05:19:53.418Z,98172.78
2023-11-04T05:22:20.905Z,98163.53
2023-11-04T05:24:49.337Z,98158.34
2023-11-04T05:27:16.925Z,98154.97
2023-11-04T05:29:44.764Z,98147.75
2023-11-04T05:32:13.792Z,98139.25
2023-11-04T05:34:41.271Z,98141.09
2023-11-04T05:37:08.756Z,98140.03
2023-11-04T05:39:36.252Z,98129.94
2023-11-04T05:42:03.973Z,98129.00
2023-11-04T05:44:31.457Z,98126.34
2023-11-04T05:46:58.955Z,98126.56
2023-11-04T05:49:28.488Z,98131.06
2023-11-04T05:51:56.061Z,98124.97
2023-11-04T05:54:23.637Z,98128.09
2023-11-04T05:56:51.174Z,98127.38
2023-11-04T05:59:18.659Z,98132.69
2023-11-04T06:01:46.165Z,98123.34
2023-11-04T06:04:13.746Z,98131.31
2023-11-04T06:06:42.704Z,98133.50
2023-11-04T06:09:12.328Z,98122.91
2023-11-04T06:11:39.853Z,98120.03
2023-11-04T06:14:08.385Z,98120.34
2023-11-04T06:16:35.973Z,98120.78
2023-11-04T06:19:03.640Z,98121.97
2023-11-04T06:21:31.176Z,98121.38
2023-11-04T06:24:00.390Z,98116.78
2023-11-04T06:26:27.876Z,98114.75
2023-11-04T06:28:55.755Z,98115.09
2023-11-04T06:31:23.638Z,98109.94
2023-11-04T06:33:51.550Z,98105.13
2023-11-04T06:36:19.260Z,98095.81
2023-11-04T06:38:46.852Z,98100.72
2023-11-04T06:41:17.553Z,98090.97
2023-11-04T06:43:45.754Z,98078.66
2023-11-04T06:46:13.378Z,98082.72
2023-11-04T06:48:41.085Z,98075.69
2023-11-04T06:51:09.415Z,98078.56
2023-11-04T06:53:37.030Z,98069.94
2023-11-04T06:56:04.983Z,98070.19
2023-11-04T06:58:33.985Z,98069.97
2023-11-04T07:01:02.655Z,98070.75
2023-11-04T07:03:30.913Z,98070.88
2023-11-04T07:05:58.756Z,98078.28
2023-11-04T07:08:26.290Z,98080.47
2023-11-04T07:10:53.908Z,98069.50
2023-11-04T07:13:21.727Z,98063.19
2023-11-04T07:15:50.646Z,98069.88
2023-11-04T07:18:19.007Z,98074.50
2023-11-04T07:20:48.820Z,98066.41
2023-11-04T07:23:18.299Z,98066.66
2023-11-04T07:25:46.337Z,98064.34
2023-11-04T07:28:13.969Z,98065.84
2023-11-04T07:30:41.856Z,98056.28
2023-11-04T07:33:11.204Z,98051.81
2023-11-04T07:35:39.700Z,98049.25
2023-11-04T07:38:09.876Z,98033.72
2023-11-04T07:40:37.482Z,98029.91
2023-11-04T07:43:07.112Z,98031.75
2023-11-04T07:45:34.976Z,98030.03
2023-11-04T07:48:02.707Z,98023.91
2023-11-04T07:50:31.578Z,98025.66
2023-11-04T07:52:59.511Z,98028.31
2023-11-04T07:55:27.090Z,98029.09
2023-11-04T07:57:54.793Z,98023.22
2023-11-04T08:00:22.423Z,98022.88
2023-11-04T08:02:50.228Z,98014.22
2023-11-04T08:05:17.953Z,97999.16
2023-11-04T08:07:46.945Z,97991.88
2023-11-04T08:10:14.707Z,97975.63
2023-11-04T08:12:42.248Z,97986.78
2023-11-04T08:15:12.278Z,97979.53
2023-11-04T08:17:40.071Z,97967.34
2023-11-04T08:20:10.864Z,97957.50
2023-11-04T08:22:39.855Z,97968.94
2023-11-04T08:25:10.618Z,97969.72
2023-11-04T08:27:40.087Z,97965.88
2023-11-04T08:30:09.020Z,97969.44
2023-11-04T08:32:36.996Z,97963.84
2023-11-04T08:35:05.351Z,97954.97
2023-11-04T08:37:32.927Z,97956.56
2023-11-04T08:40:00.594Z,97956.09
2023-11-04T08:42:29.544Z,97949.84
2023-11-04T08:44:57.057Z,97944.31
2023-11-04T08:47:24.764Z,97947.84
2023-11-04T08:49:52.539Z,97929.28
2023-11-04T08:52:20.440Z,97931.94
2023-11-04T08:54:47.977Z,97926.81
2023-11-04T08:57:15.904Z,97931.75
2023-11-04T08:59:44.734Z,97922.75
2023-11-04T09:02:12.650Z,97914.06
2023-11-04T09:04:40.359Z,97910.78
2023-11-04T09:07:08.038Z,97906.66
2023-11-04T09:09:35.777Z,97898.81
2023-11-04T09:12:03.339Z,97884.66
2023-11-04T09:14:30.900Z,97884.19
2023-11-04T09:16:59.756Z,97879.16
2023-11-04T09:19:27.436Z,97875.31
2023-11-04T09:21:55.041Z,97861.16
2023-11-04T09:24:22.661Z,97863.38
2023-11-04T09:26:50.669Z,97861.91
2023-11-04T09:29:19.975Z,97852.94
2023-11-04T09:31:47.574Z,97852.59
2023-11-04T09:34:17.052Z,97852.94
2023-11-04T09:36:45.351Z,97831.22
2023-11-04T09:39:13.540Z,97840.72
2023-11-04T09:41:41.882Z,97839.78
2023-11-04T09:44:09.424Z,97836.69
2023-11-04T09:46:37.174Z,97837.69
2023-11-04T09:49:04.959Z,97823.34
2023-11-04T09:51:35.517Z,97826.06
2023-11-04T09:54:05.008Z,97821.75
2023-11-04T09:56:32.574Z,97800.59
2023-11-04T09:59:01.004Z,97793.78
2023-11-04T10:01:29.269Z,97796.91
2023-11-04T10:03:57.284Z,97792.75
2023-11-04T10:06:25.617Z,97776.78
2023-11-04T10:08:54.704Z,97773.34
2023-11-04T10:11:22.235Z,97765.22
2023-11-04T10:13:50.150Z,97750.88
2023-11-04T10:16:19.484Z,97751.84
2023-11-04T10:18:47.705Z,97743.91
2023-11-04T10:21:15.296Z,97742.59
2023-11-04T10:23:43.622Z,97730.47
2023-11-04T10:26:12.458Z,97727.31
2023-11-04T10:28:40.646Z,97729.09
2023-11-04T10:31:08.772Z,97728.84
2023-11-04T10:33:38.361Z,97713.78
2023-11-04T10:36:09.193Z,97711.63
2023-11-04T10:38:38.701Z,97708.47
2023-11-04T10:41:08.885Z,97697.72
2023-11-04T10:43:44.063Z,97686.63
2023-11-04T10:46:19.128Z,97686.84
2023-11-04T10:48:53.175Z,97674.25
2023-11-04T10:51:25.979Z,97676.56
2023-11-04T10:54:02.275Z,97662.63
2023-11-04T10:56:38.741Z,97665.22
2023-11-04T10:59:12.107Z,97653.38
2023-11-04T11:01:43.065Z,97652.72
2023-11-04T11:04:12.152Z,97644.59
2023-11-04T11:06:41.870Z,97628.53
2023-11-04T11:09:10.434Z,97612.13
2023-11-04T11:11:46.232Z,97613.28
2023-11-04T11:14:16.789Z,97614.59
2023-11-04T11:16:44.374Z,97596.47
2023-11-04T11:19:13.240Z,97595.06
2023-11-04T11:21:50.290Z,97589.25
2023-11-04T11:24:21.492Z,97575.09
2023-11-04T11:26:49.923Z,97572.19
2023-11-04T11:29:26.735Z,97570.25
2023-11-04T11:32:05.168Z,97578.47
2023-11-04T11:34:33.015Z,97566.03
2023-11-04T11:37:01.201Z,97567.59
2023-11-04T11:39:31.154Z,97570.44
2023-11-04T11:42:01.836Z,97565.03
2023-11-04T11:44:30.729Z,97574.38
2023-11-04T11:46:58.276Z,97578.38
2023-11-04T11:49:26.338Z,97562.50
2023-11-04T11:51:54.350Z,97552.97
2023-11-04T11:54:23.405Z,97546.22
2023-11-04T11:56:53.553Z,97537.63
2023-11-04T11:59:21.066Z,97532.06
2023-11-04T12:01:51.654Z,97530.94
2023-11-04T12:04:20.122Z,97523.84
2023-11-04T12:06:51.505Z,97511.34
2023-11-04T12:09:20.850Z,97500.78
2023-11-04T12:11:48.926Z,97494.16
2023-11-04T12:14:16.463Z,97490.66
2023-11-04T12:16:44.294Z,97484.00
2023-11-04T12:19:13.545Z,97476.53
2023-11-04T12:21:41.208Z,97476.19
2023-11-04T12:24:09.895Z,97469.25
2023-11-04T12:26:39.825Z,97465.00
2023-11-04T12:29:07.356Z,97464.41
2023-11-04T12:31:34.925Z,97463.09
2023-11-04T12:34:04.534Z,97437.31
2023-11-04T12:36:33.592Z,97435.78
2023-11-04T12:39:01.910Z,97427.25
2023-11-04T12:41:31.741Z,97424.06
2023-11-04T12:44:02.598Z,97422.22
2023-11-04T12:46:30.796Z,97421.19
2023-11-04T12:48:59.024Z,97409.19
2023-11-04T12:51:26.767Z,97409.94
2023-11-04T12:53:56.950Z,97398.00
2023-11-04T12:56:24.827Z,97399.06
2023-11-04T12:58:54.548Z,97400.66
2023-11-04T13:01:22.122Z,97395.63
2023-11-04T13:03:50.648Z,97385.47
2023-11-04T13:06:18.200Z,97384.41
2023-11-04T13:08:45.715Z,97376.16
2023-11-04T13:11:14.833Z,97370.03
2023-11-04T13:13:42.340Z,97371.75
2023-11-04T13:16:10.533Z,97365.41
2023-11-04T13:18:38.323Z,97358.41
2023-11-04T13:21:06.318Z,97356.19
2023-11-04T13:23:34.371Z,97343.94
2023-11-04T13:26:02.683Z,97349.22
2023-11-04T13:28:31.533Z,97355.19
2023-11-04T13:30:59.189Z,97355.28
2023-11-04T13:33:26.849Z,97349.06
2023-11-04T13:35:54.522Z,97337.13
2023-11-04T13:38:22.355Z,97336.41
2023-11-04T13:40:50.493Z,97330.31
2023-11-04T13:43:18.054Z,97332.38
2023-11-04T13:45:47.262Z,97331.22
2023-11-04T13:48:15.231Z,97336.66
2023-11-04T13:50:42.808Z,97352.16
2023-11-04T13:53:10.273Z,97334.72
2023-11-04T13:55:37.799Z,97346.19
2023-11-04T13:58:05.381Z,97349.53
2023-11-04T14:00:33.153Z,97344.94
2023-11-04T14:03:02.046Z,97342.09
2023-11-04T14:05:29.946Z,97331.69
2023-11-04T14:07:57.688Z,97332.31
2023-11-04T14:10:25.474Z,97316.13
2023-11-04T14:12:53.025Z,97316.88
2023-11-04T14:15:20.896Z,97315.81
2023-11-04T14:17:48.844Z,97308.06
2023-11-04T14:20:17.968Z,97312.06
2023-11-04T14:22:45.725Z,97307.66
2023-11-04T14:25:13.410Z,97313.81
2023-11-04T14:27:41.036Z,97327.81
2023-11-04T14:30:09.347Z,97306.44
2023-11-04T14:32:36.988Z,97312.53
2023-11-04T14:35:05.118Z,97303.69
2023-11-04T14:37:34.948Z,97300.13
2023-11-04T14:40:02.707Z,97287.38
2023-11-04T14:42:30.340Z,97277.84
2023-11-04T14:44:57.952Z,97266.09
2023-11-04T14:47:25.498Z,97273.97
2023-11-04T14:49:53.159Z,97271.13
2023-11-04T14:52:22.001Z,97255.47
2023-11-04T14:54:51.005Z,97250.16
2023-11-04T14:57:20.365Z,97253.56
2023-11-04T14:59:47.882Z,97245.38
2023-11-04T15:02:16.231Z,97242.91
2023-11-04T15:04:45.648Z,97223.84
2023-11-04T15:07:13.568Z,97219.75
2023-11-04T15:09:43.370Z,97216.16
2023-11-04T15:12:13.413Z,97208.28
2023-11-04T15:14:41.740Z,97192.19
2023-11-04T15:17:09.303Z,97183.38
2023-11-04T15:19:39.096Z,97188.06
2023-11-04T15:22:06.889Z,97196.34
2023-11-04T15:24:34.538Z,97188.56
2023-11-04T15:27:04.726Z,97183.53
2023-11-04T15:29:33.659Z,97181.59
2023-11-04T15:32:01.405Z,97171.75
2023-11-04T15:34:29.056Z,97171.25
2023-11-04T15:36:56.777Z,97179.56
2023-11-04T15:39:24.396Z,97169.56
2023-11-04T15:41:52.134Z,97183.66
2023-11-04T15:44:19.772Z,97171.41
2023-11-04T15:46:48.765Z,97161.34
2023-11-04T15:49:17.512Z,97172.94
2023-11-04T15:51:46.617Z,97167.47
2023-11-04T15:54:14.148Z,97168.97
2023-11-04T15:56:41.688Z,97162.41
2023-11-04T15:59:09.750Z,97159.19
2023-11-04T16:01:37.948Z,97160.09
2023-11-04T16:04:07.188Z,97159.13
2023-11-04T16:06:34.856Z,97152.44
2023-11-04T16:09:03.062Z,97154.31
2023-11-04T16:11:30.888Z,97159.53
2023-11-04T16:13:58.435Z,97153.19
2023-11-04T16:16:26.000Z,97149.53
2023-11-04T16:18:53.932Z,97154.81
2023-11-04T16:21:22.873Z,97151.69
2023-11-04T16:23:51.159Z,97154.34
2023-11-04T16:26:18.924Z,97154.38
2023-11-04T16:28:46.593Z,97158.88
2023-11-04T16:31:21.394Z,97146.97
2023-11-04T16:33:50.471Z,97142.66
2023-11-04T16:36:18.440Z,97148.53
2023-11-04T16:38:47.329Z,97146.47
2023-11-04T16:41:15.389Z,97150.75
2023-11-04T16:43:43.168Z,97131.69
2023-11-04T16:46:11.157Z,97141.78
2023-11-04T16:48:38.823Z,97125.13
2023-11-04T16:51:07.631Z,97132.75
2023-11-04T16:53:35.876Z,97129.84
2023-11-04T16:56:05.354Z,97129.31
2023-11-04T16:58:32.896Z,97134.09
2023-11-04T17:01:00.480Z,97137.56
2023-11-04T17:03:28.182Z,97148.66
2023-11-04T17:05:55.840Z,97144.38
2023-11-04T17:08:23.406Z,97149.66
2023-11-04T17:10:51.008Z,97147.06
2023-11-04T17:13:20.645Z,97148.72
2023-11-04T17:15:48.343Z,97131.50
2023-11-04T17:18:18.534Z,97133.41
2023-11-04T17:20:46.208Z,97141.38
2023-11-04T17:23:14.949Z,97139.53
2023-11-04T17:25:42.609Z,97125.28
2023-11-04T17:28:10.550Z,97127.63
2023-11-04T17:30:39.560Z,97118.91
2023-11-04T17:33:07.311Z,97124.00
2023-11-04T17:35:35.008Z,97115.22
2023-11-04T17:38:02.564Z,97107.06
2023-11-04T17:40:30.209Z,97107.06
2023-11-04T17:42:57.938Z,97102.28
2023-11-04T17:45:27.139Z,97097.53
2023-11-04T17:47:56.815Z,97102.88
2023-11-04T17:50:24.542Z,97107.09
2023-11-04T17:52:52.090Z,97105.00
2023-11-04T17:55:19.825Z,97110.31
2023-11-04T17:57:47.488Z,97106.38
2023-11-04T18:00:15.665Z,97101.38
2023-11-04T18:02:43.286Z,97108.53
2023-11-04T18:05:12.327Z,97110.41
2023-11-04T18:07:40.237Z,97102.41
2023-11-04T18:10:08.678Z,97114.88
2023-11-04T18:12:36.261Z,97117.03
2023-11-04T18:15:04.181Z,97116.22
2023-11-04T18:17:31.802Z,97111.97
2023-11-04T18:19:59.810Z,97111.72
2023-11-04T18:22:28.813Z,97112.78
2023-11-04T18:24:56.372Z,97113.59
2023-11-04T18:27:35.426Z,97114.94
2023-11-04T18:30:12.591Z,97113.34
2023-11-04T18:32:40.315Z,97108.84
2023-11-04T18:35:10.133Z,97110.69
2023-11-04T18:37:40.215Z,97101.41
2023-11-04T18:40:09.017Z,97103.00
2023-11-04T18:42:36.687Z,97099.31
2023-11-04T18:45:05.914Z,97083.38
2023-11-04T18:47:34.383Z,97086.03
2023-11-04T18:50:02.457Z,97079.16
2023-11-04T18:52:31.161Z,97079.19
2023-11-04T18:55:00.213Z,97078.63
2023-11-04T18:57:27.888Z,97076.50
2023-11-04T18:59:55.560Z,97086.59
2023-11-04T19:02:24.776Z,97077.56
2023-11-04T19:04:52.589Z,97071.72
2023-11-04T19:07:20.313Z,97063.00
2023-11-04T19:09:47.960Z,97056.34
2023-11-04T19:12:17.176Z,97053.19
2023-11-04T19:14:44.870Z,97048.94
2023-11-04T19:17:12.472Z,97054.25
2023-11-04T19:19:40.289Z,97053.19
2023-11-04T19:22:08.516Z,97055.59
2023-11-04T19:24:36.352Z,97050.03
2023-11-04T19:27:04.150Z,97041.53
2023-11-04T19:29:33.446Z,97039.94
2023-11-04T19:32:01.199Z,97035.44
2023-11-04T19:34:29.190Z,97033.56
2023-11-04T19:36:57.555Z,97041.00
2023-11-04T19:39:25.294Z,97042.59
2023-11-04T19:41:52.910Z,97046.56
2023-11-04T19:44:20.823Z,97051.09
2023-11-04T19:46:49.773Z,97040.22
2023-11-04T19:49:17.456Z,97039.72
2023-11-04T19:51:45.135Z,97038.91
2023-11-04T19:54:12.810Z,97026.97
2023-11-04T19:56:40.903Z,97024.84
2023-11-04T19:59:08.495Z,97021.38
2023-11-04T20:01:37.141Z,97014.22
2023-11-04T20:04:06.734Z,97002.50
2023-11-04T20:06:34.567Z,97003.56
2023-11-04T20:09:02.588Z,97013.66
2023-11-04T20:11:30.453Z,97002.25
2023-11-04T20:13:58.356Z,96999.59
2023-11-04T20:16:28.897Z,96996.38
2023-11-04T20:18:57.626Z,96993.72
2023-11-04T20:21:28.639Z,96988.41
2023-11-04T20:23:56.320Z,96987.09
2023-11-04T20:26:26.098Z,96998.78
2023-11-04T20:28:54.498Z,96988.13
2023-11-04T20:31:22.653Z,96983.91
2023-11-04T20:33:50.902Z,96980.66
2023-11-04T20:36:19.194Z,96979.84
2023-11-04T20:38:48.376Z,96965.78
2023-11-04T20:41:16.506Z,96964.72
2023-11-04T20:43:44.168Z,96954.63
2023-11-04T20:46:12.364Z,96969.00
2023-11-04T20:48:40.680Z,96961.81
2023-11-04T20:51:09.451Z,96952.22
2023-11-04T20:53:37.449Z,96962.31
2023-11-04T20:56:07.781Z,96957.56
2023-11-04T20:58:38.035Z,96976.16
2023-11-04T21:01:07.409Z,96984.13
2023-11-04T21:03:35.267Z,96975.88
2023-11-04T21:06:03.149Z,96984.66
2023-11-04T21:08:32.742Z,96980.94
2023-11-04T21:11:00.958Z,96985.22
2023-11-04T21:13:30.037Z,96985.47
2023-11-04T21:15:57.642Z,96988.66
2023-11-04T21:18:25.195Z,96990.00
2023-11-04T21:20:52.729Z,96990.28
2023-11-04T21:23:20.224Z,97001.72
2023-11-04T21:25:47.807Z,96998.50
2023-11-04T21:28:15.485Z,96994.25
2023-11-04T21:30:44.440Z,97001.44
2023-11-04T21:33:12.531Z,97010.47
2023-11-04T21:35:41.229Z,96997.44
2023-11-04T21:38:11.987Z,96995.31
2023-11-04T21:40:39.721Z,96993.72
2023-11-04T21:43:08.167Z,96996.06
2023-11-04T21:45:36.206Z,96989.97
2023-11-04T21:48:06.783Z,96996.66
2023-11-04T21:50:34.561Z,96989.47
2023-11-04T21:53:02.803Z,97002.50
2023-11-04T21:55:30.433Z,96994.28
2023-11-04T21:57:58.611Z,96995.84
2023-11-04T22:00:26.234Z,97007.03
2023-11-04T22:02:55.333Z,97004.38
2023-11-04T22:05:24.596Z,97019.53
2023-11-04T22:07:52.487Z,97005.97
2023-11-04T22:10:20.234Z,97007.56
2023-11-04T22:12:47.995Z,97001.47
2023-11-04T22:15:15.929Z,97012.09
2023-11-04T22:17:44.012Z,97011.28
2023-11-04T22:20:12.421Z,97004.66
2023-11-04T22:22:42.173Z,97020.31
2023-11-04T22:25:10.200Z,97013.94
2023-11-04T22:27:37.907Z,97016.59
2023-11-04T22:30:07.005Z,97016.59
2023-11-04T22:32:34.728Z,97013.94
2023-11-04T22:35:02.299Z,97013.41
2023-11-04T22:37:30.469Z,97003.31
2023-11-04T22:39:59.419Z,97015.81
2023-11-04T22:42:27.721Z,97021.09
2023-11-04T22:44:54.611Z,97019.00
2023-11-04T22:47:22.370Z,97012.88
2023-11-04T22:49:50.320Z,97016.06
2023-11-04T22:52:18.415Z,97014.19
2023-11-04T22:54:46.167Z,97022.97
2023-11-04T22:57:15.418Z,97015.28
2023-11-04T22:59:43.195Z,97026.69
2023-11-04T23:02:10.788Z,97034.91
2023-11-04T23:04:38.724Z,97032.00
2023-11-04T23:07:07.762Z,97025.91
2023-11-04T23:09:35.892Z,97023.78
2023-11-04T23:12:04.617Z,97017.94
2023-11-04T23:14:34.272Z,97012.59
2023-11-04T23:17:01.979Z,97018.47
2023-11-04T23:19:29.727Z,97011.28
2023-11-04T23:21:57.629Z,97007.28
2023-11-04T23:24:25.255Z,97021.91
2023-11-04T23:26:53.967Z,97017.66
2023-11-04T23:29:21.683Z,97023.75
2023-11-04T23:31:51.023Z,97017.66
2023-11-04T23:34:19.046Z,97018.19
2023-11-04T23:36:46.625Z,97013.69
2023-11-04T23:39:14.230Z,97009.69
2023-11-04T23:41:41.765Z,97006.22
2023-11-04T23:44:09.668Z,96992.97
2023-11-04T23:46:37.209Z,96999.59
2023-11-04T23:49:06.370Z,96994.81
2023-11-04T23:51:34.034Z,96983.66
2023-11-04T23:54:01.616Z,96986.31
2023-11-04T23:56:29.633Z,96990.56
2023-11-04T23:58:57.191Z,96993.22
